createdAt,value
2018-02-12T00:01:49.795Z,17.77
2018-02-12T00:04:17.901Z,16.10
2018-02-12T00:06:45.969Z,16.80
2018-02-12T00:09:14.001Z,14.10
2018-02-12T00:11:42.012Z,16.17
2018-02-12T00:14:10.487Z,18.20
2018-02-12T00:16:38.571Z,13.20
2018-02-12T00:19:06.493Z,20.13
2018-02-12T00:21:34.459Z,18.77
2018-02-12T00:24:02.326Z,11.23
2018-02-12T00:26:30.194Z,11.37
2018-02-12T00:28:58.184Z,13.90
2018-02-12T00:31:26.252Z,9.80
2018-02-12T00:33:54.348Z,14.17
2018-02-12T00:36:22.213Z,10.90
2018-02-12T00:38:50.500Z,9.40
2018-02-12T00:41:18.370Z,10.97
2018-02-12T00:43:46.363Z,11.57
2018-02-12T00:46:14.502Z,9.43
2018-02-12T00:48:42.346Z,9.80
2018-02-12T00:51:10.346Z,10.60
2018-02-12T00:53:38.386Z,14.73
2018-02-12T00:56:06.855Z,11.70
2018-02-12T00:58:34.674Z,15.63
2018-02-12T01:01:02.493Z,18.10
2018-02-12T01:03:30.498Z,14.03
2018-02-12T01:05:58.407Z,16.07
2018-02-12T01:08:26.547Z,12.87
2018-02-12T01:10:55.363Z,19.73
2018-02-12T01:13:23.266Z,17.10
2018-02-12T01:15:51.258Z,18.37
2018-02-12T01:18:19.115Z,19.00
2018-02-12T01:20:46.948Z,18.27
2018-02-12T01:23:16.789Z,19.33
2018-02-12T01:25:45.299Z,13.67
2018-02-12T01:28:13.066Z,20.03
2018-02-12T01:30:41.339Z,19.20
2018-02-12T01:33:09.600Z,21.50
2018-02-12T01:35:37.692Z,24.73
2018-02-12T01:38:05.434Z,18.33
2018-02-12T01:40:33.624Z,18.20
2018-02-12T01:43:02.313Z,15.70
2018-02-12T01:45:30.300Z,16.97
2018-02-12T01:47:58.381Z,18.23
2018-02-12T01:50:26.236Z,15.13
2018-02-12T01:52:54.190Z,18.60
2018-02-12T01:55:22.269Z,20.37
2018-02-12T01:57:49.987Z,16.20
2018-02-12T02:00:17.861Z,17.67
2018-02-12T02:02:45.731Z,20.53
2018-02-12T02:05:13.595Z,20.53
2018-02-12T02:07:41.465Z,15.50
2018-02-12T02:10:09.559Z,17.30
2018-02-12T02:12:37.437Z,17.60
2018-02-12T02:15:05.406Z,20.63
2018-02-12T02:17:33.170Z,18.90
2018-02-12T02:20:01.208Z,19.10
2018-02-12T02:22:29.077Z,19.90
2018-02-12T02:24:56.942Z,20.17
2018-02-12T02:27:24.907Z,20.03
2018-02-12T02:29:52.605Z,17.97
2018-02-12T02:32:20.545Z,19.30
2018-02-12T02:34:48.531Z,21.00
2018-02-12T02:37:16.375Z,21.80
2018-02-12T02:39:45.060Z,18.10
2018-02-12T02:42:12.935Z,24.47
2018-02-12T02:44:40.807Z,21.10
2018-02-12T02:47:08.652Z,23.77
2018-02-12T02:49:36.660Z,19.90
2018-02-12T02:52:04.544Z,15.33
2018-02-12T02:54:32.507Z,20.30
2018-02-12T02:57:00.582Z,20.03
2018-02-12T02:59:28.662Z,18.53
2018-02-12T03:01:56.622Z,18.90
2018-02-12T03:04:24.597Z,22.53
2018-02-12T03:06:53.004Z,19.07
2018-02-12T03:09:20.884Z,18.13
2018-02-12T03:11:48.593Z,20.17
2018-02-12T03:14:16.657Z,17.63
2018-02-12T03:16:44.745Z,19.57
2018-02-12T03:19:12.717Z,23.50
2018-02-12T03:21:40.633Z,23.57
2018-02-12T03:24:08.452Z,26.47
2018-02-12T03:26:36.435Z,27.07
2018-02-12T03:29:04.337Z,26.73
2018-02-12T03:31:32.458Z,18.10
2018-02-12T03:34:00.532Z,20.53
2018-02-12T03:36:28.398Z,19.83
2018-02-12T03:38:56.471Z,19.23
2018-02-12T03:41:24.574Z,21.00
2018-02-12T03:43:52.615Z,24.30
2018-02-12T03:46:20.482Z,17.57
2018-02-12T03:48:48.452Z,21.40
2018-02-12T03:51:16.462Z,16.73
2018-02-12T03:53:44.377Z,21.03
2018-02-12T03:56:12.076Z,20.70
2018-02-12T03:58:40.111Z,20.90
2018-02-12T04:01:07.954Z,21.17
2018-02-12T04:03:35.971Z,25.27
2018-02-12T04:06:03.993Z,17.70
2018-02-12T04:08:31.802Z,20.90
2018-02-12T04:10:59.727Z,24.93
2018-02-12T04:13:27.561Z,26.73
2018-02-12T04:15:55.607Z,27.00
2018-02-12T04:18:23.685Z,23.83
2018-02-12T04:20:51.753Z,20.30
2018-02-12T04:23:19.795Z,20.80
2018-02-12T04:25:47.874Z,25.87
2018-02-12T04:28:15.742Z,22.87
2018-02-12T04:30:44.039Z,21.80
2018-02-12T04:33:12.055Z,27.60
2018-02-12T04:35:40.164Z,24.60
2018-02-12T04:38:07.985Z,26.53
2018-02-12T04:40:35.715Z,21.70
2018-02-12T04:43:03.718Z,21.00
2018-02-12T04:45:32.106Z,20.67
2018-02-12T04:48:00.228Z,23.70
2018-02-12T04:50:28.025Z,24.77
2018-02-12T04:52:56.380Z,33.30
2018-02-12T04:55:24.827Z,28.37
2018-02-12T04:57:52.918Z,26.47
2018-02-12T05:00:20.663Z,26.70
2018-02-12T05:02:48.626Z,27.47
2018-02-12T05:05:16.738Z,28.77
2018-02-12T05:07:44.765Z,24.87
2018-02-12T05:10:13.664Z,24.17
2018-02-12T05:12:41.425Z,28.40
2018-02-12T05:15:09.340Z,22.73
2018-02-12T05:17:37.203Z,27.70
2018-02-12T05:20:05.137Z,24.57
2018-02-12T05:22:32.889Z,30.60
2018-02-12T05:25:00.548Z,25.50
2018-02-12T05:27:28.310Z,33.33
2018-02-12T05:29:55.982Z,23.83
2018-02-12T05:32:23.786Z,22.73
2018-02-12T05:34:51.746Z,30.53
2018-02-12T05:37:19.434Z,31.00
2018-02-12T05:39:47.186Z,29.33
2018-02-12T05:42:14.883Z,29.20
2018-02-12T05:44:42.578Z,34.73
2018-02-12T05:47:10.321Z,33.37
2018-02-12T05:49:38.063Z,31.97
2018-02-12T05:52:05.817Z,33.03
2018-02-12T05:54:33.576Z,29.30
2018-02-12T05:57:01.377Z,41.53
2018-02-12T05:59:29.092Z,28.97
2018-02-12T06:01:56.915Z,33.33
2018-02-12T06:04:24.639Z,33.20
2018-02-12T06:06:52.299Z,34.43
2018-02-12T06:09:20.020Z,32.70
2018-02-12T06:11:47.701Z,31.00
2018-02-12T06:14:16.304Z,35.43
2018-02-12T06:16:44.027Z,33.37
2018-02-12T06:19:11.748Z,35.60
2018-02-12T06:21:39.801Z,29.40
2018-02-12T06:24:07.577Z,50.30
2018-02-12T06:26:35.639Z,56.33
2018-02-12T06:29:03.695Z,38.37
2018-02-12T06:31:31.517Z,30.80
2018-02-12T06:33:59.208Z,35.43
2018-02-12T06:36:27.472Z,27.07
2018-02-12T06:38:55.182Z,30.37
2018-02-12T06:41:22.900Z,29.30
2018-02-12T06:43:50.725Z,27.10
2018-02-12T06:46:18.521Z,27.10
2018-02-12T06:48:46.265Z,26.17
2018-02-12T06:51:14.018Z,26.63
2018-02-12T06:53:41.728Z,25.80
2018-02-12T06:56:09.637Z,39.43
2018-02-12T06:58:37.450Z,28.53
2018-02-12T07:01:05.128Z,41.47
2018-02-12T07:03:32.944Z,28.20
2018-02-12T07:06:00.851Z,29.50
2018-02-12T07:08:28.844Z,27.30
2018-02-12T07:10:56.813Z,27.30
2018-02-12T07:13:24.920Z,28.27
2018-02-12T07:15:52.679Z,36.37
2018-02-12T07:18:20.993Z,38.80
2018-02-12T07:20:48.692Z,34.87
2018-02-12T07:23:16.471Z,26.93
2018-02-12T07:25:44.156Z,32.97
2018-02-12T07:28:11.895Z,44.33
2018-02-12T07:30:39.602Z,44.93
2018-02-12T07:33:07.298Z,34.07
2018-02-12T07:35:35.378Z,31.53
2018-02-12T07:38:03.391Z,27.03
2018-02-12T07:40:31.198Z,31.30
2018-02-12T07:42:58.970Z,49.30
2018-02-12T07:45:26.845Z,39.57
2018-02-12T07:47:56.018Z,36.53
2018-02-12T07:50:23.937Z,35.37
2018-02-12T07:52:52.098Z,28.00
2018-02-12T07:55:19.946Z,34.97
2018-02-12T07:57:48.387Z,29.70
2018-02-12T08:00:17.408Z,36.33
2018-02-12T08:02:45.333Z,33.03
2018-02-12T08:05:13.193Z,30.50
2018-02-12T08:07:40.935Z,28.80
2018-02-12T08:10:08.780Z,31.13
2018-02-12T08:12:36.728Z,36.60
2018-02-12T08:15:04.619Z,36.23
2018-02-12T08:17:33.251Z,26.10
2018-02-12T08:20:01.156Z,44.13
2018-02-12T08:22:29.698Z,45.63
2018-02-12T08:24:57.417Z,51.60
2018-02-12T08:27:25.232Z,58.40
2018-02-12T08:29:53.070Z,44.30
2018-02-12T08:32:20.864Z,44.67
2018-02-12T08:34:48.643Z,46.77
2018-02-12T08:37:16.313Z,44.93
2018-02-12T08:39:44.079Z,37.00
2018-02-12T08:42:11.791Z,34.43
2018-02-12T08:44:39.612Z,39.23
2018-02-12T08:47:07.401Z,27.70
2018-02-12T08:49:35.833Z,39.63
2018-02-12T08:52:03.893Z,25.20
2018-02-12T08:54:31.952Z,29.43
2018-02-12T08:57:00.037Z,32.10
2018-02-12T08:59:28.410Z,26.83
2018-02-12T09:01:56.255Z,27.80
2018-02-12T09:04:24.247Z,27.80
2018-02-12T09:06:52.309Z,23.33
2018-02-12T09:09:20.291Z,32.40
2018-02-12T09:11:48.645Z,38.73
2018-02-12T09:14:17.224Z,30.83
2018-02-12T09:16:45.736Z,18.83
2018-02-12T09:19:14.507Z,18.80
2018-02-12T09:21:42.367Z,21.93
2018-02-12T09:24:10.178Z,17.70
2018-02-12T09:26:38.340Z,12.27
2018-02-12T09:29:06.153Z,14.33
2018-02-12T09:31:34.648Z,18.23
2018-02-12T09:34:02.390Z,12.53
2018-02-12T09:36:30.180Z,16.20
2018-02-12T09:38:59.107Z,16.90
2018-02-12T09:41:26.938Z,18.00
2018-02-12T09:43:54.647Z,11.60
2018-02-12T09:46:22.411Z,9.93
2018-02-12T09:48:50.180Z,10.73
2018-02-12T09:51:18.061Z,5.33
2018-02-12T09:53:45.776Z,6.00
2018-02-12T09:56:13.560Z,14.80
2018-02-12T09:58:41.304Z,25.83
2018-02-12T10:01:09.004Z,23.00
2018-02-12T10:03:36.783Z,22.17
2018-02-12T10:06:04.527Z,18.50
2018-02-12T10:08:32.252Z,24.97
2018-02-12T10:11:00.064Z,20.80
2018-02-12T10:13:27.766Z,15.77
2018-02-12T10:15:55.802Z,11.30
2018-02-12T10:18:23.488Z,13.50
2018-02-12T10:20:51.304Z,20.80
2018-02-12T10:23:18.978Z,20.23
2018-02-12T10:25:46.708Z,16.53
2018-02-12T10:28:14.402Z,16.30
2018-02-12T10:30:42.130Z,23.17
2018-02-12T10:33:09.883Z,26.57
2018-02-12T10:35:37.650Z,14.43
2018-02-12T10:38:05.336Z,16.43
2018-02-12T10:40:33.055Z,20.73
2018-02-12T10:43:00.816Z,15.40
2018-02-12T10:45:28.681Z,12.80
2018-02-12T10:47:56.477Z,13.47
2018-02-12T10:50:24.177Z,15.40
2018-02-12T10:52:51.892Z,14.77
2018-02-12T10:55:20.029Z,19.20
2018-02-12T10:57:47.891Z,16.10
2018-02-12T11:00:15.664Z,9.57
2018-02-12T11:02:43.547Z,13.30
2018-02-12T11:05:12.352Z,9.50
2018-02-12T11:07:40.083Z,10.17
2018-02-12T11:10:07.817Z,5.80
2018-02-12T11:12:36.925Z,5.23
2018-02-12T11:15:04.893Z,5.93
2018-02-12T11:17:33.786Z,4.57
2018-02-12T11:20:02.433Z,24.50
2018-02-12T11:22:30.132Z,13.93
2018-02-12T11:24:57.930Z,14.43
2018-02-12T11:27:25.700Z,10.80
2018-02-12T11:29:53.447Z,12.07
2018-02-12T11:32:21.176Z,8.77
2018-02-12T11:34:48.870Z,9.13
2018-02-12T11:37:17.030Z,3.93
2018-02-12T11:39:44.823Z,3.13
2018-02-12T11:42:12.619Z,2.30
2018-02-12T11:44:40.298Z,1.23
2018-02-12T11:47:08.039Z,0.77
2018-02-12T11:49:36.950Z,1.20
2018-02-12T11:52:05.273Z,2.43
2018-02-12T11:54:34.022Z,2.20
2018-02-12T11:57:01.912Z,4.27
2018-02-12T11:59:30.652Z,2.27
2018-02-12T12:01:58.524Z,2.30
2018-02-12T12:04:26.843Z,5.10
2018-02-12T12:06:54.916Z,2.10
2018-02-12T12:09:22.973Z,1.23
2018-02-12T12:11:50.767Z,1.30
2018-02-12T12:14:18.447Z,2.60
2018-02-12T12:16:46.295Z,3.60
2018-02-12T12:19:14.766Z,1.03
2018-02-12T12:21:42.937Z,0.40
2018-02-12T12:24:11.000Z,7.00
2018-02-12T12:26:39.420Z,0.87
2018-02-12T12:29:07.128Z,0.93
2018-02-12T12:31:34.824Z,0.30
2018-02-12T12:34:03.868Z,0.57
2018-02-12T12:36:32.909Z,0.37
2018-02-12T12:39:00.677Z,1.50
2018-02-12T12:41:28.844Z,5.40
2018-02-12T12:43:56.625Z,0.97
2018-02-12T12:46:24.473Z,0.70
2018-02-12T12:48:53.545Z,1.03
2018-02-12T12:51:21.397Z,11.50
2018-02-12T12:53:49.160Z,29.57
2018-02-12T12:56:16.932Z,5.33
2018-02-12T12:58:44.913Z,0.97
2018-02-12T13:01:14.005Z,2.73
2018-02-12T13:03:42.372Z,0.63
2018-02-12T13:06:10.167Z,2.00
2018-02-12T13:08:37.905Z,0.83
2018-02-12T13:11:05.647Z,0.67
2018-02-12T13:13:33.424Z,0.50
2018-02-12T13:16:01.182Z,0.30
2018-02-12T13:18:28.902Z,0.30
2018-02-12T13:20:56.667Z,1.67
2018-02-12T13:23:24.447Z,0.77
2018-02-12T13:25:52.227Z,1.40
2018-02-12T13:28:20.995Z,0.50
2018-02-12T13:30:48.753Z,0.73
2018-02-12T13:33:16.808Z,0.83
2018-02-12T13:35:44.519Z,0.50
2018-02-12T13:38:12.253Z,0.40
2018-02-12T13:40:39.924Z,0.30
2018-02-12T13:43:07.657Z,0.40
2018-02-12T13:45:35.343Z,0.87
2018-02-12T13:48:03.100Z,0.60
2018-02-12T13:50:31.414Z,2.43
2018-02-12T13:52:59.246Z,0.53
2018-02-12T13:55:27.010Z,1.43
2018-02-12T13:57:55.000Z,1.20
2018-02-12T14:00:23.055Z,1.43
2018-02-12T14:02:50.983Z,1.17
2018-02-12T14:05:18.711Z,2.60
2018-02-12T14:07:48.413Z,5.70
2018-02-12T14:10:16.114Z,29.20
2018-02-12T14:12:43.858Z,22.70
2018-02-12T14:15:11.716Z,2.63
2018-02-12T14:17:39.537Z,3.67
2018-02-12T14:20:07.363Z,6.90
2018-02-12T14:22:35.281Z,1.83
2018-02-12T14:25:03.224Z,0.73
2018-02-12T14:27:31.327Z,1.07
2018-02-12T14:29:59.468Z,3.13
2018-02-12T14:32:27.169Z,4.10
2018-02-12T14:34:55.338Z,7.30
2018-02-12T14:37:23.550Z,2.03
2018-02-12T14:39:51.688Z,1.40
2018-02-12T14:42:19.442Z,1.17
2018-02-12T14:44:47.236Z,5.43
2018-02-12T14:47:15.169Z,4.07
2018-02-12T14:49:44.128Z,2.60
2018-02-12T14:52:12.121Z,1.70
2018-02-12T14:54:40.145Z,0.63
2018-02-12T14:57:08.296Z,4.43
2018-02-12T14:59:36.418Z,5.03
2018-02-12T15:02:04.191Z,0.60
2018-02-12T15:04:32.714Z,0.50
2018-02-12T15:07:00.727Z,0.43
2018-02-12T15:09:28.532Z,0.60
2018-02-12T15:11:56.478Z,0.40
2018-02-12T15:14:25.094Z,1.10
2018-02-12T15:16:53.137Z,3.60
2018-02-12T15:19:21.042Z,0.37
2018-02-12T15:21:48.789Z,0.30
2018-02-12T15:24:17.517Z,1.23
2018-02-12T15:26:45.287Z,0.63
2018-02-12T15:29:13.129Z,0.97
2018-02-12T15:31:40.991Z,1.30
2018-02-12T15:34:08.837Z,9.20
2018-02-12T15:36:37.568Z,4.80
2018-02-12T15:39:05.485Z,2.60
2018-02-12T15:41:33.936Z,1.80
2018-02-12T15:44:02.712Z,1.50
2018-02-12T15:46:31.110Z,5.53
2018-02-12T15:48:59.117Z,3.83
2018-02-12T15:51:28.571Z,6.87
2018-02-12T15:53:56.312Z,4.30
2018-02-12T15:56:24.209Z,3.70
2018-02-12T15:58:52.245Z,3.63
2018-02-12T16:01:21.179Z,5.60
2018-02-12T16:03:49.136Z,6.53
2018-02-12T16:06:17.172Z,5.07
2018-02-12T16:08:45.197Z,14.30
2018-02-12T16:11:13.170Z,7.67
2018-02-12T16:13:40.914Z,5.80
2018-02-12T16:16:08.711Z,22.70
2018-02-12T16:18:36.472Z,40.27
2018-02-12T16:21:04.166Z,21.23
2018-02-12T16:23:31.935Z,12.63
2018-02-12T16:25:59.887Z,7.53
2018-02-12T16:28:27.830Z,2.70
2018-02-12T16:30:55.586Z,7.00
2018-02-12T16:33:23.272Z,1.83
2018-02-12T16:35:51.165Z,2.30
2018-02-12T16:38:18.957Z,9.97
2018-02-12T16:40:46.909Z,4.10
2018-02-12T16:43:14.851Z,5.83
2018-02-12T16:45:42.740Z,2.53
2018-02-12T16:48:12.077Z,6.30
2018-02-12T16:50:40.134Z,2.23
2018-02-12T16:53:08.042Z,1.73
2018-02-12T16:55:35.821Z,1.63
2018-02-12T16:58:03.526Z,2.77
2018-02-12T17:00:31.465Z,1.77
2018-02-12T17:02:59.227Z,4.57
2018-02-12T17:05:27.162Z,3.03
2018-02-12T17:07:54.978Z,3.40
2018-02-12T17:10:22.898Z,2.20
2018-02-12T17:12:50.661Z,6.00
2018-02-12T17:15:18.468Z,3.13
2018-02-12T17:17:46.940Z,1.90
2018-02-12T17:20:14.662Z,3.57
2018-02-12T17:22:42.456Z,2.10
2018-02-12T17:25:10.463Z,2.40
2018-02-12T17:27:38.292Z,2.83
2018-02-12T17:30:06.882Z,2.50
2018-02-12T17:32:35.105Z,2.90
2018-02-12T17:35:03.152Z,2.70
2018-02-12T17:37:30.913Z,1.27
2018-02-12T17:39:58.705Z,1.23
2018-02-12T17:42:26.506Z,1.20
2018-02-12T17:44:54.212Z,1.10
2018-02-12T17:47:22.089Z,1.33
2018-02-12T17:49:50.692Z,2.83
2018-02-12T17:52:18.388Z,1.50
2018-02-12T17:54:47.320Z,1.67
2018-02-12T17:57:15.599Z,2.80
2018-02-12T17:59:44.899Z,13.67
2018-02-12T18:02:12.781Z,19.80
2018-02-12T18:04:40.835Z,29.00
2018-02-12T18:07:08.907Z,32.93
2018-02-12T18:09:37.024Z,51.27
2018-02-12T18:12:04.895Z,34.47
2018-02-12T18:14:33.941Z,26.10
2018-02-12T18:17:02.838Z,16.80
2018-02-12T18:19:30.772Z,9.17
2018-02-12T18:21:58.685Z,15.13
2018-02-12T18:24:27.529Z,21.47
2018-02-12T18:26:55.428Z,11.80
2018-02-12T18:29:23.613Z,13.63
2018-02-12T18:31:51.531Z,5.30
2018-02-12T18:34:19.669Z,7.43
2018-02-12T18:36:47.716Z,0.73
2018-02-12T18:39:15.792Z,2.00
2018-02-12T18:41:43.579Z,2.43
2018-02-12T18:44:11.335Z,2.30
2018-02-12T18:46:39.089Z,3.77
2018-02-12T18:49:06.952Z,2.00
2018-02-12T18:51:34.703Z,2.00
2018-02-12T18:54:02.512Z,30.50
2018-02-12T18:56:30.467Z,23.60
2018-02-12T18:58:58.317Z,19.80
2018-02-12T19:01:26.040Z,17.37
2018-02-12T19:03:53.875Z,6.47
2018-02-12T19:06:21.892Z,3.93
2018-02-12T19:08:49.751Z,3.23
2018-02-12T19:11:17.699Z,4.77
2018-02-12T19:13:45.554Z,4.07
2018-02-12T19:16:13.659Z,4.03
2018-02-12T19:18:41.589Z,8.20
2018-02-12T19:21:09.750Z,11.10
2018-02-12T19:23:37.866Z,14.57
2018-02-12T19:26:05.945Z,8.40
2018-02-12T19:28:33.764Z,21.13
2018-02-12T19:31:02.437Z,11.67
2018-02-12T19:33:31.426Z,12.83
2018-02-12T19:35:59.347Z,9.93
2018-02-12T19:38:27.185Z,80.73
2018-02-12T19:40:55.008Z,27.17
2018-02-12T19:43:22.803Z,9.20
2018-02-12T19:45:50.717Z,7.70
2018-02-12T19:48:18.690Z,11.07
2018-02-12T19:50:47.402Z,9.40
2018-02-12T19:53:15.274Z,7.60
2018-02-12T19:55:43.111Z,9.90
2018-02-12T19:58:11.434Z,3.97
2018-02-12T20:00:40.113Z,14.10
2018-02-12T20:03:08.183Z,4.07
2018-02-12T20:05:36.017Z,5.23
2018-02-12T20:08:03.995Z,6.57
2018-02-12T20:10:31.804Z,6.70
2018-02-12T20:12:59.848Z,6.30
2018-02-12T20:15:27.817Z,4.63
2018-02-12T20:17:56.297Z,7.63
2018-02-12T20:20:25.103Z,8.00
2018-02-12T20:22:52.942Z,4.53
2018-02-12T20:25:20.956Z,3.23
2018-02-12T20:27:49.830Z,4.20
2018-02-12T20:30:17.708Z,7.00
2018-02-12T20:32:45.510Z,11.03
2018-02-12T20:35:13.564Z,4.80
2018-02-12T20:37:41.445Z,9.37
2018-02-12T20:40:09.425Z,5.47
2018-02-12T20:42:37.299Z,7.90
2018-02-12T20:45:05.516Z,5.10
2018-02-12T20:47:33.401Z,3.13
2018-02-12T20:50:01.296Z,5.80
2018-02-12T20:52:29.105Z,2.83
2018-02-12T20:54:56.848Z,3.70
2018-02-12T20:57:24.963Z,3.83
2018-02-12T20:59:52.698Z,5.70
2018-02-12T21:02:21.403Z,3.83
2018-02-12T21:04:49.271Z,6.27
2018-02-12T21:07:18.716Z,10.33
2018-02-12T21:09:46.440Z,5.43
2018-02-12T21:12:14.311Z,6.20
2018-02-12T21:14:42.095Z,2.70
2018-02-12T21:17:09.862Z,3.93
2018-02-12T21:19:37.660Z,4.10
2018-02-12T21:22:05.473Z,7.37
2018-02-12T21:24:34.284Z,3.70
2018-02-12T21:27:02.041Z,8.83
2018-02-12T21:29:29.987Z,4.00
2018-02-12T21:31:57.963Z,4.07
2018-02-12T21:34:25.724Z,3.03
2018-02-12T21:36:53.502Z,5.13
2018-02-12T21:39:21.317Z,2.90
2018-02-12T21:41:49.148Z,2.63
2018-02-12T21:44:17.031Z,3.10
2018-02-12T21:46:44.973Z,3.47
2018-02-12T21:49:12.923Z,4.10
2018-02-12T21:51:40.680Z,5.43
2018-02-12T21:54:08.989Z,3.07
2018-02-12T21:56:36.920Z,3.00
2018-02-12T21:59:04.681Z,8.10
2018-02-12T22:01:32.662Z,6.13
2018-02-12T22:04:00.428Z,7.97
2018-02-12T22:06:28.710Z,11.97
2018-02-12T22:08:56.735Z,8.23
2018-02-12T22:11:24.411Z,5.33
2018-02-12T22:13:52.220Z,4.70
2018-02-12T22:16:19.927Z,13.53
2018-02-12T22:18:47.639Z,7.83
2018-02-12T22:21:15.351Z,8.23
2018-02-12T22:23:43.063Z,6.80
2018-02-12T22:26:10.812Z,9.27
2018-02-12T22:28:38.546Z,8.23
2018-02-12T22:31:06.226Z,14.20
2018-02-12T22:33:34.009Z,12.57
2018-02-12T22:36:01.714Z,9.00
2018-02-12T22:38:29.480Z,7.60
2018-02-12T22:40:57.322Z,10.50
2018-02-12T22:43:25.118Z,7.53
2018-02-12T22:45:52.848Z,3.50
2018-02-12T22:48:20.674Z,3.70
2018-02-12T22:50:48.551Z,5.53
2018-02-12T22:53:16.337Z,5.97
2018-02-12T22:55:44.208Z,5.40
2018-02-12T22:58:12.026Z,5.60
2018-02-12T23:00:39.791Z,4.03
2018-02-12T23:03:07.463Z,3.97
2018-02-12T23:05:35.470Z,6.93
2018-02-12T23:08:03.525Z,4.93
2018-02-12T23:10:31.569Z,7.60
2018-02-12T23:12:59.435Z,9.43
2018-02-12T23:15:32.803Z,6.20
2018-02-12T23:18:00.510Z,7.37
2018-02-12T23:20:28.260Z,9.30
2018-02-12T23:22:55.922Z,6.70
2018-02-12T23:25:23.661Z,18.53
2018-02-12T23:27:51.330Z,27.90
2018-02-12T23:30:19.043Z,40.93
2018-02-12T23:32:46.770Z,9.00
2018-02-12T23:35:14.786Z,8.80
2018-02-12T23:37:42.502Z,5.50
2018-02-12T23:40:10.241Z,6.50
2018-02-12T23:42:38.111Z,11.53
2018-02-12T23:45:06.081Z,4.03
2018-02-12T23:47:33.814Z,38.83
2018-02-12T23:50:01.892Z,44.93
2018-02-12T23:52:29.908Z,24.50
2018-02-12T23:54:58.021Z,18.93
2018-02-12T23:57:26.110Z,15.20
2018-02-12T23:59:54.209Z,13.80
